createdAt,value
2023-03-27T00:01:13.312Z,98273.28
2023-03-27T00:03:41.478Z,98266.56
2023-03-27T00:06:16.777Z,98268.25
2023-03-27T00:08:46.509Z,98264.75
2023-03-27T00:11:15.581Z,98261.78
2023-03-27T00:13:49.441Z,98256.03
2023-03-27T00:16:20.204Z,98255.37
2023-03-27T00:18:47.707Z,98252.38
2023-03-27T00:21:15.447Z,98246.00
2023-03-27T00:23:43.186Z,98246.63
2023-03-27T00:26:12.134Z,98244.00
2023-03-27T00:28:39.904Z,98234.97
2023-03-27T00:31:15.425Z,98229.22
2023-03-27T00:33:43.135Z,98226.25
2023-03-27T00:36:11.399Z,98219.63
2023-03-27T00:38:43.585Z,98227.16
2023-03-27T00:41:12.626Z,98228.50
2023-03-27T00:43:43.579Z,98217.28
2023-03-27T00:46:43.711Z,98214.31
2023-03-27T00:49:12.340Z,98213.12
2023-03-27T00:51:41.729Z,98205.97
2023-03-27T00:54:09.848Z,98210.00
2023-03-27T00:56:38.640Z,98199.19
2023-03-27T00:59:10.838Z,98205.09
2023-03-27T01:01:39.862Z,98204.38
2023-03-27T01:04:08.997Z,98185.75
2023-03-27T01:06:37.137Z,98178.66
2023-03-27T01:09:04.740Z,98179.44
2023-03-27T01:11:56.372Z,98171.91
2023-03-27T01:14:23.811Z,98167.59
2023-03-27T01:17:16.748Z,98170.09
2023-03-27T01:20:14.320Z,98168.09
2023-03-27T01:23:05.381Z,98168.66
2023-03-27T01:26:00.973Z,98163.34
2023-03-27T01:29:03.430Z,98162.66
2023-03-27T01:32:10.211Z,98148.13
2023-03-27T01:35:02.201Z,98154.03
2023-03-27T01:38:02.886Z,98148.13
2023-03-27T01:40:38.209Z,98142.91
2023-03-27T01:43:33.724Z,98137.75
2023-03-27T01:46:08.754Z,98133.84
2023-03-27T01:48:51.502Z,98134.28
2023-03-27T01:51:47.076Z,98128.09
2023-03-27T01:54:25.135Z,98118.31
2023-03-27T01:57:02.439Z,98123.94
2023-03-27T01:59:33.801Z,98128.22
2023-03-27T02:02:06.379Z,98116.47
2023-03-27T02:04:57.087Z,98121.59
2023-03-27T02:07:33.115Z,98127.28
2023-03-27T02:10:04.867Z,98128.22
2023-03-27T02:12:40.481Z,98125.03
2023-03-27T02:15:23.600Z,98126.03
2023-03-27T02:17:57.718Z,98123.59
2023-03-27T02:20:25.427Z,98113.13
2023-03-27T02:23:00.807Z,98109.00
2023-03-27T02:25:41.965Z,98099.09
2023-03-27T02:28:31.307Z,98081.16
2023-03-27T02:31:33.115Z,98074.25
2023-03-27T02:34:01.953Z,98071.84
2023-03-27T02:36:49.677Z,98066.53
2023-03-27T02:39:30.737Z,98056.31
2023-03-27T02:42:20.965Z,98045.81
2023-03-27T02:44:56.706Z,98045.88
2023-03-27T02:47:43.129Z,98036.84
2023-03-27T02:50:21.880Z,98039.94
2023-03-27T02:52:56.727Z,98037.56
2023-03-27T02:55:28.325Z,98034.50
2023-03-27T02:57:59.506Z,98033.22
2023-03-27T03:00:30.011Z,98030.19
2023-03-27T03:03:13.895Z,98033.94
2023-03-27T03:05:41.999Z,98018.41
2023-03-27T03:08:10.339Z,98021.91
2023-03-27T03:10:45.333Z,98017.88
2023-03-27T03:13:14.503Z,98015.47
2023-03-27T03:15:46.094Z,98020.88
2023-03-27T03:18:14.142Z,98013.59
2023-03-27T03:20:41.893Z,98010.56
2023-03-27T03:23:09.384Z,98013.41
2023-03-27T03:25:37.114Z,98014.19
2023-03-27T03:28:08.169Z,98015.94
2023-03-27T03:30:38.821Z,98006.94
2023-03-27T03:33:06.843Z,98007.78
2023-03-27T03:35:35.001Z,98018.56
2023-03-27T03:38:03.785Z,98014.81
2023-03-27T03:40:33.286Z,98018.97
2023-03-27T03:43:00.707Z,98019.28
2023-03-27T03:45:28.371Z,98014.50
2023-03-27T03:47:56.201Z,98009.28
2023-03-27T03:50:24.216Z,98008.62
2023-03-27T03:52:51.649Z,98008.19
2023-03-27T03:55:19.391Z,98012.72
2023-03-27T03:57:50.194Z,98003.50
2023-03-27T04:00:18.817Z,98004.87
2023-03-27T04:02:50.707Z,98000.34
2023-03-27T04:05:18.293Z,98008.16
2023-03-27T04:07:46.053Z,98006.78
2023-03-27T04:10:14.674Z,98008.19
2023-03-27T04:12:49.160Z,98006.78
2023-03-27T04:15:17.009Z,98001.91
2023-03-27T04:17:48.392Z,97999.69
2023-03-27T04:20:17.277Z,98008.28
2023-03-27T04:22:46.440Z,98003.50
2023-03-27T04:25:15.877Z,98002.53
2023-03-27T04:27:44.784Z,98001.59
2023-03-27T04:30:16.131Z,97998.38
2023-03-27T04:32:46.521Z,97997.16
2023-03-27T04:35:25.162Z,97992.75
2023-03-27T04:37:52.866Z,97994.47
2023-03-27T04:40:25.424Z,97989.69
2023-03-27T04:42:55.843Z,97996.28
2023-03-27T04:45:25.588Z,97989.00
2023-03-27T04:47:54.431Z,97996.22
2023-03-27T04:50:22.284Z,97989.69
2023-03-27T04:52:51.726Z,97993.78
2023-03-27T04:55:19.932Z,97990.53
2023-03-27T04:57:48.086Z,97990.72
2023-03-27T05:00:16.458Z,97982.63
2023-03-27T05:02:47.808Z,97980.28
2023-03-27T05:05:17.016Z,97977.69
2023-03-27T05:07:45.801Z,97969.44
2023-03-27T05:10:15.647Z,97961.19
2023-03-27T05:12:48.078Z,97967.00
2023-03-27T05:15:16.783Z,97964.41
2023-03-27T05:17:46.850Z,97961.88
2023-03-27T05:20:19.334Z,97967.50
2023-03-27T05:22:47.610Z,97963.94
2023-03-27T05:25:16.255Z,97961.13
2023-03-27T05:27:48.090Z,97963.00
2023-03-27T05:30:18.368Z,97960.44
2023-03-27T05:32:48.739Z,97961.06
2023-03-27T05:35:18.142Z,97962.81
2023-03-27T05:37:51.212Z,97962.19
2023-03-27T05:40:22.379Z,97962.12
2023-03-27T05:42:51.145Z,97959.09
2023-03-27T05:45:19.478Z,97950.47
2023-03-27T05:47:54.433Z,97959.97
2023-03-27T05:50:33.611Z,97961.66
2023-03-27T05:53:04.282Z,97943.44
2023-03-27T05:55:32.467Z,97955.16
2023-03-27T05:58:00.164Z,97945.00
2023-03-27T06:00:31.624Z,97947.41
2023-03-27T06:03:01.642Z,97944.06
2023-03-27T06:05:34.624Z,97947.47
2023-03-27T06:08:02.359Z,97941.19
2023-03-27T06:10:30.477Z,97945.00
2023-03-27T06:13:08.248Z,97944.38
2023-03-27T06:15:39.164Z,97938.47
2023-03-27T06:18:08.054Z,97939.41
2023-03-27T06:20:37.353Z,97939.69
2023-03-27T06:23:09.374Z,97927.63
2023-03-27T06:25:39.357Z,97931.09
2023-03-27T06:28:09.476Z,97926.31
2023-03-27T06:30:38.856Z,97926.84
2023-03-27T06:33:08.132Z,97926.41
2023-03-27T06:35:35.819Z,97930.34
2023-03-27T06:38:03.562Z,97926.31
2023-03-27T06:40:32.271Z,97932.34
2023-03-27T06:43:02.059Z,97930.78
2023-03-27T06:45:35.504Z,97930.97
2023-03-27T06:48:15.553Z,97934.22
2023-03-27T06:50:49.027Z,97936.31
2023-03-27T06:55:49.181Z,97935.97
2023-03-27T06:58:18.906Z,97935.87
2023-03-27T07:00:48.861Z,97946.91
2023-03-27T07:03:26.074Z,97944.59
2023-03-27T07:05:55.709Z,97950.87
2023-03-27T07:08:26.670Z,97949.88
2023-03-27T07:13:25.751Z,97948.75
2023-03-27T07:15:54.806Z,97953.88
2023-03-27T07:18:23.437Z,97947.84
2023-03-27T07:20:51.498Z,97951.09
2023-03-27T07:23:19.349Z,97951.97
2023-03-27T07:25:49.891Z,97950.09
2023-03-27T07:28:20.980Z,97941.94
2023-03-27T07:30:48.927Z,97939.81
2023-03-27T07:33:20.660Z,97948.97
2023-03-27T07:35:48.527Z,97948.31
2023-03-27T07:38:18.459Z,97952.13
2023-03-27T07:40:50.164Z,97953.69
2023-03-27T07:43:19.472Z,97958.72
2023-03-27T07:45:47.168Z,97971.44
2023-03-27T07:48:18.917Z,97963.31
2023-03-27T07:50:47.984Z,97959.69
2023-03-27T07:53:33.063Z,97954.72
2023-03-27T07:56:03.589Z,97951.00
2023-03-27T07:58:32.327Z,97951.78
2023-03-27T08:01:02.487Z,97947.62
2023-03-27T08:03:31.327Z,97942.41
2023-03-27T08:06:00.395Z,97944.84
2023-03-27T08:08:28.418Z,97954.66
2023-03-27T08:10:57.556Z,97965.19
2023-03-27T08:13:25.722Z,97961.50
2023-03-27T08:16:24.870Z,97969.78
2023-03-27T08:18:53.407Z,97983.84
2023-03-27T08:21:21.139Z,97990.53
2023-03-27T08:23:50.026Z,97989.44
2023-03-27T08:26:20.924Z,97988.28
2023-03-27T08:28:49.138Z,97985.66
2023-03-27T08:31:18.399Z,97986.97
2023-03-27T08:33:46.860Z,97982.59
2023-03-27T08:36:14.698Z,97969.91
2023-03-27T08:38:43.342Z,97983.03
2023-03-27T08:41:33.796Z,97984.75
2023-03-27T08:44:03.927Z,97992.94
2023-03-27T08:46:58.387Z,97998.88
2023-03-27T08:49:29.471Z,98000.19
2023-03-27T08:52:08.785Z,98001.19
2023-03-27T08:54:38.306Z,97995.41
2023-03-27T08:57:17.601Z,97997.75
2023-03-27T08:59:47.192Z,97994.88
2023-03-27T09:02:30.059Z,97998.06
2023-03-27T09:05:01.696Z,97994.91
2023-03-27T09:07:34.425Z,97993.03
2023-03-27T09:10:13.640Z,97991.25
2023-03-27T09:13:28.145Z,98001.16
2023-03-27T09:16:17.239Z,97993.59
2023-03-27T09:19:01.866Z,98004.03
2023-03-27T09:21:37.553Z,97997.91
2023-03-27T09:24:13.539Z,98009.16
2023-03-27T09:26:43.101Z,98004.44
2023-03-27T09:29:20.648Z,97997.13
2023-03-27T09:31:51.076Z,97999.84
2023-03-27T09:34:26.834Z,98006.72
2023-03-27T09:36:54.581Z,98005.06
2023-03-27T09:39:28.120Z,98008.97
2023-03-27T09:42:11.245Z,98015.94
2023-03-27T09:44:42.404Z,98022.16
2023-03-27T09:47:34.617Z,98017.94
2023-03-27T09:50:33.176Z,98019.69
2023-03-27T09:53:13.669Z,98031.47
2023-03-27T09:56:03.031Z,98031.19
2023-03-27T09:58:44.125Z,98034.75
2023-03-27T10:01:20.512Z,98028.16
2023-03-27T10:03:53.041Z,98043.34
2023-03-27T10:06:30.251Z,98048.56
2023-03-27T10:09:07.146Z,98055.59
2023-03-27T10:11:35.837Z,98063.22
2023-03-27T10:14:13.703Z,98062.84
2023-03-27T10:16:41.754Z,98065.03
2023-03-27T10:19:21.831Z,98065.34
2023-03-27T10:21:49.730Z,98066.06
2023-03-27T10:24:28.152Z,98068.25
2023-03-27T10:27:00.393Z,98057.22
2023-03-27T10:29:32.985Z,98065.34
2023-03-27T10:32:01.840Z,98069.59
2023-03-27T10:34:39.988Z,98068.28
2023-03-27T10:37:29.338Z,98057.78
2023-03-27T10:40:09.352Z,98084.88
2023-03-27T10:42:37.951Z,98088.16
2023-03-27T10:45:07.670Z,98086.28
2023-03-27T10:47:35.467Z,98084.72
2023-03-27T10:50:15.477Z,98088.47
2023-03-27T10:53:02.237Z,98079.06
2023-03-27T10:55:44.864Z,98084.50
2023-03-27T10:58:25.658Z,98092.25
2023-03-27T11:00:59.349Z,98085.44
2023-03-27T11:03:31.916Z,98095.16
2023-03-27T11:06:03.226Z,98089.97
2023-03-27T11:08:58.421Z,98102.94
2023-03-27T11:11:49.110Z,98092.16
2023-03-27T11:14:20.371Z,98098.09
2023-03-27T11:16:53.946Z,98103.59
2023-03-27T11:19:42.899Z,98098.03
2023-03-27T11:22:15.356Z,98107.16
2023-03-27T11:24:56.120Z,98094.81
2023-03-27T11:27:32.583Z,98094.81
2023-03-27T11:30:08.482Z,98107.53
2023-03-27T11:32:46.702Z,98108.09
2023-03-27T11:35:23.201Z,98103.84
2023-03-27T11:38:08.200Z,98118.72
2023-03-27T11:40:46.542Z,98110.47
2023-03-27T11:43:16.240Z,98115.62
2023-03-27T11:45:53.518Z,98111.66
2023-03-27T11:48:49.099Z,98113.41
2023-03-27T11:51:54.976Z,98118.59
2023-03-27T11:54:41.105Z,98120.31
2023-03-27T11:57:23.289Z,98117.50
2023-03-27T11:59:58.281Z,98127.75
2023-03-27T12:02:46.625Z,98126.34
2023-03-27T12:05:31.857Z,98108.06
2023-03-27T12:08:22.487Z,98121.62
2023-03-27T12:10:52.953Z,98124.41
2023-03-27T12:14:00.886Z,98125.87
2023-03-27T12:16:52.123Z,98128.31
2023-03-27T12:19:39.160Z,98141.78
2023-03-27T12:22:50.557Z,98158.31
2023-03-27T12:25:40.123Z,98158.16
2023-03-27T12:28:28.184Z,98160.09
2023-03-27T12:30:56.413Z,98161.34
2023-03-27T12:33:36.344Z,98167.78
2023-03-27T12:36:06.315Z,98169.00
2023-03-27T12:38:40.115Z,98176.97
2023-03-27T12:41:43.276Z,98193.41
2023-03-27T12:44:13.651Z,98179.84
2023-03-27T12:46:42.499Z,98181.38
2023-03-27T12:49:13.242Z,98190.78
2023-03-27T12:51:41.355Z,98185.25
2023-03-27T12:54:21.630Z,98206.66
2023-03-27T12:56:59.182Z,98210.94
2023-03-27T12:59:29.271Z,98228.41
2023-03-27T13:02:03.451Z,98220.41
2023-03-27T13:04:49.880Z,98242.69
2023-03-27T13:07:43.699Z,98252.75
2023-03-27T13:10:33.701Z,98247.41
2023-03-27T13:13:24.482Z,98266.91
2023-03-27T13:16:17.379Z,98282.31
2023-03-27T13:19:06.923Z,98291.34
2023-03-27T13:22:00.978Z,98283.72
2023-03-27T13:24:59.394Z,98285.31
2023-03-27T13:27:54.355Z,98309.94
2023-03-27T13:30:44.612Z,98333.31
2023-03-27T13:33:23.047Z,98336.00
2023-03-27T13:36:10.489Z,98342.19
2023-03-27T13:38:53.316Z,98345.13
2023-03-27T13:41:43.495Z,98370.22
2023-03-27T13:44:22.492Z,98369.00
2023-03-27T13:46:54.456Z,98376.50
2023-03-27T13:49:46.595Z,98387.31
2023-03-27T13:52:44.411Z,98407.19
2023-03-27T13:55:12.391Z,98415.06
2023-03-27T13:57:56.063Z,98433.59
2023-03-27T14:00:56.880Z,98451.72
2023-03-27T14:03:52.443Z,98457.41
2023-03-27T14:06:39.305Z,98476.81
2023-03-27T14:09:35.610Z,98480.47
2023-03-27T14:12:34.134Z,98490.59
2023-03-27T14:15:24.020Z,98494.09
2023-03-27T14:17:57.085Z,98509.03
2023-03-27T14:20:31.876Z,98495.12
2023-03-27T14:23:06.620Z,98494.34
2023-03-27T14:25:43.737Z,98488.31
2023-03-27T14:28:36.528Z,98509.88
2023-03-27T14:31:07.416Z,98511.34
2023-03-27T14:33:39.201Z,98538.34
2023-03-27T14:36:16.539Z,98542.69
2023-03-27T14:38:44.096Z,98521.09
2023-03-27T14:41:19.758Z,98538.41
2023-03-27T14:43:48.794Z,98559.94
2023-03-27T14:46:16.994Z,98569.41
2023-03-27T14:48:46.109Z,98565.16
2023-03-27T14:51:19.607Z,98560.84
2023-03-27T14:53:49.550Z,98578.91
2023-03-27T14:56:24.026Z,98598.69
2023-03-27T14:58:55.499Z,98591.81
2023-03-27T15:01:23.449Z,98605.50
2023-03-27T15:03:53.832Z,98621.72
2023-03-27T15:06:26.395Z,98614.87
2023-03-27T15:08:56.386Z,98638.16
2023-03-27T15:11:27.574Z,98629.50
2023-03-27T15:13:56.292Z,98637.34
2023-03-27T15:16:25.973Z,98666.50
2023-03-27T15:19:05.038Z,98667.19
2023-03-27T15:21:46.562Z,98646.66
2023-03-27T15:24:24.277Z,98679.31
2023-03-27T15:26:53.144Z,98697.41
2023-03-27T15:29:44.028Z,98690.41
2023-03-27T15:32:14.972Z,98696.56
2023-03-27T15:34:47.807Z,98711.16
2023-03-27T15:37:23.221Z,98717.91
2023-03-27T15:40:23.465Z,98704.16
2023-03-27T15:42:51.098Z,98715.44
2023-03-27T15:45:24.263Z,98716.19
2023-03-27T15:48:05.636Z,98719.78
2023-03-27T15:50:34.003Z,98737.72
2023-03-27T15:53:02.451Z,98743.81
2023-03-27T15:55:32.436Z,98737.59
2023-03-27T15:58:00.241Z,98756.59
2023-03-27T16:00:28.981Z,98762.41
2023-03-27T16:02:56.797Z,98775.41
2023-03-27T16:05:24.246Z,98775.41
2023-03-27T16:07:52.103Z,98781.47
2023-03-27T16:10:31.778Z,98781.47
2023-03-27T16:13:03.181Z,98794.47
2023-03-27T16:15:41.716Z,98812.44
2023-03-27T16:18:28.882Z,98814.00
2023-03-27T16:21:06.827Z,98820.06
2023-03-27T16:23:34.477Z,98845.09
2023-03-27T16:26:02.762Z,98843.41
2023-03-27T16:28:30.444Z,98878.38
2023-03-27T16:30:58.078Z,98862.06
2023-03-27T16:33:29.606Z,98850.13
2023-03-27T16:35:58.375Z,98868.22
2023-03-27T16:38:26.411Z,98883.47
2023-03-27T16:40:53.803Z,98889.63
2023-03-27T16:43:21.183Z,98887.22
2023-03-27T16:45:48.957Z,98889.56
2023-03-27T16:48:16.376Z,98916.13
2023-03-27T16:50:43.819Z,98926.50
2023-03-27T16:53:11.612Z,98917.19
2023-03-27T16:55:39.087Z,98941.06
2023-03-27T16:58:06.551Z,98918.09
2023-03-27T17:00:34.292Z,98919.78
2023-03-27T17:03:02.256Z,98930.78
2023-03-27T17:05:34.248Z,98947.97
2023-03-27T17:08:02.282Z,98944.59
2023-03-27T17:10:31.086Z,98965.97
2023-03-27T17:12:58.519Z,98957.41
2023-03-27T17:15:26.218Z,98981.50
2023-03-27T17:17:53.700Z,98984.03
2023-03-27T17:20:21.376Z,98992.88
2023-03-27T17:22:49.078Z,99002.91
2023-03-27T17:25:17.646Z,99014.12
2023-03-27T17:27:45.015Z,99016.72
2023-03-27T17:30:15.940Z,99015.91
2023-03-27T17:32:45.946Z,99016.91
2023-03-27T17:35:13.659Z,99034.09
2023-03-27T17:37:41.411Z,99032.94
2023-03-27T17:40:09.898Z,99036.53
2023-03-27T17:42:37.722Z,99046.03
2023-03-27T17:45:06.220Z,99039.25
2023-03-27T17:47:33.654Z,99034.84
2023-03-27T17:50:01.366Z,99033.75
2023-03-27T17:52:31.200Z,99049.22
2023-03-27T17:54:59.966Z,99039.75
2023-03-27T17:57:28.048Z,99059.41
2023-03-27T17:59:55.617Z,99073.69
2023-03-27T18:02:23.028Z,99066.06
2023-03-27T18:04:52.359Z,99065.59
2023-03-27T18:07:20.363Z,99069.72
2023-03-27T18:09:47.980Z,99080.13
2023-03-27T18:12:17.466Z,99067.94
2023-03-27T18:14:46.516Z,99095.44
2023-03-27T18:17:15.808Z,99077.50
2023-03-27T18:19:43.512Z,99067.28
2023-03-27T18:22:11.048Z,99067.09
2023-03-27T18:24:38.421Z,99070.44
2023-03-27T18:27:06.128Z,99086.00
2023-03-27T18:29:34.463Z,99084.75
2023-03-27T18:32:01.830Z,99099.53
2023-03-27T18:34:29.529Z,99096.91
2023-03-27T18:36:56.925Z,99105.56
2023-03-27T18:39:24.339Z,99127.16
2023-03-27T18:41:53.311Z,99135.22
2023-03-27T18:44:21.603Z,99133.81
2023-03-27T18:46:49.013Z,99135.59
2023-03-27T18:49:24.154Z,99132.75
2023-03-27T18:51:52.660Z,99147.41
2023-03-27T18:54:20.359Z,99147.09
2023-03-27T18:56:48.641Z,99159.12
2023-03-27T18:59:16.108Z,99159.34
2023-03-27T19:01:44.002Z,99175.84
2023-03-27T19:04:13.980Z,99162.72
2023-03-27T19:06:42.522Z,99180.81
2023-03-27T19:09:10.322Z,99181.94
2023-03-27T19:11:38.312Z,99186.69
2023-03-27T19:14:08.534Z,99189.06
2023-03-27T19:16:36.283Z,99192.53
2023-03-27T19:19:09.703Z,99199.19
2023-03-27T19:21:38.318Z,99194.31
2023-03-27T19:24:06.404Z,99213.25
2023-03-27T19:26:34.424Z,99203.28
2023-03-27T19:29:02.149Z,99207.16
2023-03-27T19:31:29.767Z,99195.75
2023-03-27T19:34:06.357Z,99219.09
2023-03-27T19:36:34.011Z,99229.53
2023-03-27T19:39:01.494Z,99218.06
2023-03-27T19:41:29.830Z,99216.22
2023-03-27T19:44:00.250Z,99218.41
2023-03-27T19:46:29.217Z,99223.44
2023-03-27T19:48:57.176Z,99216.97
2023-03-27T19:51:25.672Z,99239.22
2023-03-27T19:53:53.179Z,99236.13
2023-03-27T19:56:21.937Z,99235.75
2023-03-27T19:58:49.325Z,99257.91
2023-03-27T20:01:19.705Z,99255.41
2023-03-27T20:03:47.625Z,99252.88
2023-03-27T20:06:19.454Z,99266.56
2023-03-27T20:08:47.251Z,99262.88
2023-03-27T20:11:15.064Z,99267.19
2023-03-27T20:13:55.392Z,99270.91
2023-03-27T20:16:26.491Z,99261.28
2023-03-27T20:18:55.505Z,99267.25
2023-03-27T20:21:24.582Z,99276.50
2023-03-27T20:23:55.705Z,99276.13
2023-03-27T20:26:24.160Z,99281.59
2023-03-27T20:28:54.440Z,99283.72
2023-03-27T20:31:22.352Z,99290.47
2023-03-27T20:33:49.942Z,99301.25
2023-03-27T20:36:19.754Z,99299.37
2023-03-27T20:38:47.313Z,99301.94
2023-03-27T20:41:15.829Z,99310.03
2023-03-27T20:43:46.879Z,99305.91
2023-03-27T20:46:14.592Z,99319.50
2023-03-27T20:48:44.883Z,99323.88
2023-03-27T20:51:24.416Z,99321.94
2023-03-27T20:53:56.020Z,99326.94
2023-03-27T20:56:24.724Z,99326.50
2023-03-27T20:58:52.250Z,99338.72
2023-03-27T21:01:19.758Z,99337.06
2023-03-27T21:03:49.905Z,99335.03
2023-03-27T21:06:20.132Z,99337.25
2023-03-27T21:08:48.042Z,99351.22
2023-03-27T21:11:15.708Z,99354.50
2023-03-27T21:13:43.136Z,99353.59
2023-03-27T21:16:10.990Z,99351.63
2023-03-27T21:18:38.565Z,99364.78
2023-03-27T21:21:06.206Z,99361.88
2023-03-27T21:23:36.959Z,99350.41
2023-03-27T21:26:04.758Z,99361.91
2023-03-27T21:28:32.264Z,99376.22
2023-03-27T21:31:06.225Z,99372.44
2023-03-27T21:33:34.018Z,99388.28
2023-03-27T21:36:04.676Z,99382.41
2023-03-27T21:38:32.568Z,99384.09
2023-03-27T21:41:02.043Z,99384.09
2023-03-27T21:43:30.127Z,99385.28
2023-03-27T21:46:01.773Z,99385.69
2023-03-27T21:48:30.316Z,99396.47
2023-03-27T21:51:02.773Z,99378.16
2023-03-27T21:53:30.420Z,99380.25
2023-03-27T21:55:58.469Z,99383.63
2023-03-27T21:58:26.166Z,99390.34
2023-03-27T22:00:57.229Z,99376.81
2023-03-27T22:03:26.139Z,99397.00
2023-03-27T22:06:07.658Z,99375.47
2023-03-27T22:08:39.019Z,99377.81
2023-03-27T22:11:06.933Z,99385.53
2023-03-27T22:13:36.246Z,99397.47
2023-03-27T22:16:09.431Z,99406.84
2023-03-27T22:18:36.924Z,99398.66
2023-03-27T22:21:25.574Z,99422.91
2023-03-27T22:23:54.879Z,99423.59
2023-03-27T22:26:25.340Z,99422.97
2023-03-27T22:28:52.859Z,99421.59
2023-03-27T22:31:23.853Z,99421.94
2023-03-27T22:33:51.949Z,99428.31
2023-03-27T22:36:19.429Z,99424.78
2023-03-27T22:38:46.847Z,99431.63
2023-03-27T22:41:15.303Z,99440.44
2023-03-27T22:43:42.800Z,99440.62
2023-03-27T22:46:15.752Z,99449.25
2023-03-27T22:48:43.460Z,99448.75
2023-03-27T22:51:12.024Z,99454.34
2023-03-27T22:53:40.168Z,99463.41
2023-03-27T22:56:08.284Z,99473.47
2023-03-27T22:58:36.004Z,99463.78
2023-03-27T23:01:04.571Z,99455.38
2023-03-27T23:03:33.023Z,99463.94
2023-03-27T23:06:00.860Z,99468.25
2023-03-27T23:08:28.943Z,99474.16
2023-03-27T23:11:04.766Z,99479.97
2023-03-27T23:13:34.064Z,99480.78
2023-03-27T23:16:02.139Z,99484.84
2023-03-27T23:18:29.894Z,99501.81
2023-03-27T23:21:06.109Z,99490.00
2023-03-27T23:23:35.805Z,99495.09
2023-03-27T23:26:04.504Z,99498.84
2023-03-27T23:28:35.340Z,99505.16
2023-03-27T23:31:05.377Z,99498.59
2023-03-27T23:33:38.324Z,99495.59
2023-03-27T23:36:08.923Z,99497.50
2023-03-27T23:38:37.432Z,99508.47
2023-03-27T23:41:06.342Z,99514.41
2023-03-27T23:43:34.944Z,99515.22
2023-03-27T23:46:04.099Z,99517.09
2023-03-27T23:48:31.955Z,99520.75
2023-03-27T23:50:59.666Z,99518.91
2023-03-27T23:53:28.224Z,99526.59
2023-03-27T23:55:57.042Z,99528.97
2023-03-27T23:58:28.652Z,99544.69
